sensor_id;sensor_type;location;lat;lon;timestamp;P1;durP1;ratioP1;P2;durP2;ratioP2
25365;SDS011;13315;48.274;-1.900;2022-12-13T00:02:07;16.35;;;8.90;;
25365;SDS011;13315;48.274;-1.900;2022-12-13T00:04:34;18.02;;;9.48;;
25365;SDS011;13315;48.274;-1.900;2022-12-13T00:07:00;19.42;;;9.63;;
25365;SDS011;13315;48.274;-1.900;2022-12-13T00:09:26;18.92;;;9.60;;
25365;SDS011;13315;48.274;-1.900;2022-12-13T00:11:52;21.13;;;9.55;;
25365;SDS011;13315;48.274;-1.900;2022-12-13T00:14:18;18.83;;;9.48;;
25365;SDS011;13315;48.274;-1.900;2022-12-13T00:16:45;17.20;;;8.68;;
25365;SDS011;13315;48.274;-1.900;2022-12-13T00:19:12;19.58;;;9.57;;
25365;SDS011;13315;48.274;-1.900;2022-12-13T00:21:38;22.02;;;11.07;;
25365;SDS011;13315;48.274;-1.900;2022-12-13T00:24:04;18.92;;;9.88;;
25365;SDS011;13315;48.274;-1.900;2022-12-13T00:26:31;23.58;;;10.25;;
25365;SDS011;13315;48.274;-1.900;2022-12-13T00:29:01;19.30;;;8.90;;
25365;SDS011;13315;48.274;-1.900;2022-12-13T00:31:28;15.50;;;8.23;;
25365;SDS011;13315;48.274;-1.900;2022-12-13T00:36:23;16.73;;;8.60;;
25365;SDS011;13315;48.274;-1.900;2022-12-13T00:38:49;21.33;;;9.00;;
25365;SDS011;13315;48.274;-1.900;2022-12-13T00:41:25;21.48;;;9.10;;
25365;SDS011;13315;48.274;-1.900;2022-12-13T00:43:51;16.63;;;8.82;;
25365;SDS011;13315;48.274;-1.900;2022-12-13T00:46:18;21.08;;;10.13;;
25365;SDS011;13315;48.274;-1.900;2022-12-13T00:48:50;20.10;;;9.63;;
25365;SDS011;13315;48.274;-1.900;2022-12-13T00:51:16;19.15;;;9.38;;
25365;SDS011;13315;48.274;-1.900;2022-12-13T00:53:43;19.30;;;9.90;;
25365;SDS011;13315;48.274;-1.900;2022-12-13T00:56:13;17.08;;;9.10;;
25365;SDS011;13315;48.274;-1.900;2022-12-13T00:58:40;22.23;;;9.82;;
25365;SDS011;13315;48.274;-1.900;2022-12-13T01:01:07;20.77;;;10.05;;
25365;SDS011;13315;48.274;-1.900;2022-12-13T01:03:33;19.58;;;9.60;;
25365;SDS011;13315;48.274;-1.900;2022-12-13T01:05:59;20.65;;;10.15;;
25365;SDS011;13315;48.274;-1.900;2022-12-13T01:08:26;19.17;;;9.98;;
25365;SDS011;13315;48.274;-1.900;2022-12-13T01:10:53;19.13;;;9.38;;
25365;SDS011;13315;48.274;-1.900;2022-12-13T01:13:19;19.55;;;10.20;;
25365;SDS011;13315;48.274;-1.900;2022-12-13T01:15:45;22.63;;;10.52;;
25365;SDS011;13315;48.274;-1.900;2022-12-13T01:18:12;19.58;;;9.15;;
25365;SDS011;13315;48.274;-1.900;2022-12-13T01:20:42;22.58;;;10.48;;
25365;SDS011;13315;48.274;-1.900;2022-12-13T01:23:08;22.92;;;10.38;;
25365;SDS011;13315;48.274;-1.900;2022-12-13T01:25:36;22.77;;;10.50;;
25365;SDS011;13315;48.274;-1.900;2022-12-13T01:28:02;22.55;;;10.52;;
25365;SDS011;13315;48.274;-1.900;2022-12-13T01:30:28;20.65;;;10.68;;
25365;SDS011;13315;48.274;-1.900;2022-12-13T01:32:54;22.13;;;10.40;;
25365;SDS011;13315;48.274;-1.900;2022-12-13T01:35:20;25.40;;;11.25;;
25365;SDS011;13315;48.274;-1.900;2022-12-13T01:37:46;21.08;;;11.20;;
25365;SDS011;13315;48.274;-1.900;2022-12-13T01:40:12;21.17;;;10.95;;
25365;SDS011;13315;48.274;-1.900;2022-12-13T01:42:39;22.40;;;10.75;;
25365;SDS011;13315;48.274;-1.900;2022-12-13T01:45:21;24.08;;;12.00;;
25365;SDS011;13315;48.274;-1.900;2022-12-13T01:47:50;24.25;;;11.38;;
25365;SDS011;13315;48.274;-1.900;2022-12-13T01:50:21;20.65;;;10.90;;
25365;SDS011;13315;48.274;-1.900;2022-12-13T01:52:48;19.65;;;9.77;;
25365;SDS011;13315;48.274;-1.900;2022-12-13T01:55:14;21.80;;;11.27;;
25365;SDS011;13315;48.274;-1.900;2022-12-13T01:57:41;20.15;;;9.98;;
25365;SDS011;13315;48.274;-1.900;2022-12-13T02:00:09;23.80;;;10.02;;
25365;SDS011;13315;48.274;-1.900;2022-12-13T02:02:35;21.80;;;10.80;;
25365;SDS011;13315;48.274;-1.900;2022-12-13T02:05:49;18.88;;;10.45;;
25365;SDS011;13315;48.274;-1.900;2022-12-13T02:07:48;20.70;;;10.20;;
25365;SDS011;13315;48.274;-1.900;2022-12-13T02:10:15;26.15;;;11.88;;
25365;SDS011;13315;48.274;-1.900;2022-12-13T02:12:41;24.02;;;11.48;;
25365;SDS011;13315;48.274;-1.900;2022-12-13T02:15:09;28.35;;;11.75;;
25365;SDS011;13315;48.274;-1.900;2022-12-13T02:28:15;21.50;;;11.27;;
25365;SDS011;13315;48.274;-1.900;2022-12-13T02:30:50;25.15;;;11.55;;
25365;SDS011;13315;48.274;-1.900;2022-12-13T02:41:31;23.70;;;11.45;;
25365;SDS011;13315;48.274;-1.900;2022-12-13T02:46:40;28.23;;;11.95;;
25365;SDS011;13315;48.274;-1.900;2022-12-13T02:49:08;28.80;;;13.00;;
25365;SDS011;13315;48.274;-1.900;2022-12-13T02:51:35;25.05;;;12.52;;
25365;SDS011;13315;48.274;-1.900;2022-12-13T02:54:02;25.27;;;12.75;;
25365;SDS011;13315;48.274;-1.900;2022-12-13T02:56:30;24.63;;;12.15;;
25365;SDS011;13315;48.274;-1.900;2022-12-13T02:58:56;23.58;;;11.55;;
25365;SDS011;13315;48.274;-1.900;2022-12-13T03:06:55;24.85;;;11.20;;
25365;SDS011;13315;48.274;-1.900;2022-12-13T03:09:38;25.23;;;11.10;;
25365;SDS011;13315;48.274;-1.900;2022-12-13T03:17:20;24.30;;;11.02;;
25365;SDS011;13315;48.274;-1.900;2022-12-13T03:19:49;23.15;;;11.07;;
25365;SDS011;13315;48.274;-1.900;2022-12-13T03:22:16;24.02;;;12.10;;
25365;SDS011;13315;48.274;-1.900;2022-12-13T03:24:42;29.00;;;10.93;;
25365;SDS011;13315;48.274;-1.900;2022-12-13T03:27:08;27.02;;;12.85;;
25365;SDS011;13315;48.274;-1.900;2022-12-13T03:29:34;22.00;;;11.50;;
25365;SDS011;13315;48.274;-1.900;2022-12-13T03:32:00;23.20;;;11.30;;
25365;SDS011;13315;48.274;-1.900;2022-12-13T03:34:27;25.33;;;12.60;;
25365;SDS011;13315;48.274;-1.900;2022-12-13T03:36:53;21.13;;;11.55;;
25365;SDS011;13315;48.274;-1.900;2022-12-13T03:39:19;26.05;;;12.30;;
25365;SDS011;13315;48.274;-1.900;2022-12-13T03:41:46;25.77;;;12.13;;
25365;SDS011;13315;48.274;-1.900;2022-12-13T03:44:12;27.85;;;12.57;;
25365;SDS011;13315;48.274;-1.900;2022-12-13T03:46:38;22.02;;;11.73;;
25365;SDS011;13315;48.274;-1.900;2022-12-13T03:49:04;27.17;;;12.15;;
25365;SDS011;13315;48.274;-1.900;2022-12-13T03:51:30;27.02;;;12.80;;
25365;SDS011;13315;48.274;-1.900;2022-12-13T03:53:56;22.70;;;11.82;;
25365;SDS011;13315;48.274;-1.900;2022-12-13T03:56:23;25.70;;;12.55;;
25365;SDS011;13315;48.274;-1.900;2022-12-13T03:58:50;25.95;;;12.45;;
25365;SDS011;13315;48.274;-1.900;2022-12-13T04:01:16;25.10;;;12.05;;
25365;SDS011;13315;48.274;-1.900;2022-12-13T04:03:43;25.23;;;11.32;;
25365;SDS011;13315;48.274;-1.900;2022-12-13T04:06:09;24.23;;;11.52;;
25365;SDS011;13315;48.274;-1.900;2022-12-13T04:08:36;24.98;;;12.57;;
25365;SDS011;13315;48.274;-1.900;2022-12-13T04:11:02;25.48;;;12.93;;
25365;SDS011;13315;48.274;-1.900;2022-12-13T04:13:49;24.52;;;12.02;;
25365;SDS011;13315;48.274;-1.900;2022-12-13T04:16:15;23.33;;;11.65;;
25365;SDS011;13315;48.274;-1.900;2022-12-13T04:18:41;23.85;;;12.05;;
25365;SDS011;13315;48.274;-1.900;2022-12-13T04:21:07;25.70;;;12.52;;
25365;SDS011;13315;48.274;-1.900;2022-12-13T04:23:33;25.15;;;11.55;;
25365;SDS011;13315;48.274;-1.900;2022-12-13T04:25:59;29.92;;;12.75;;
25365;SDS011;13315;48.274;-1.900;2022-12-13T04:28:26;22.05;;;12.07;;
25365;SDS011;13315;48.274;-1.900;2022-12-13T04:30:52;23.52;;;11.55;;
25365;SDS011;13315;48.274;-1.900;2022-12-13T04:33:18;25.63;;;11.85;;
25365;SDS011;13315;48.274;-1.900;2022-12-13T04:35:45;21.55;;;12.02;;
25365;SDS011;13315;48.274;-1.900;2022-12-13T04:38:11;22.70;;;10.75;;
25365;SDS011;13315;48.274;-1.900;2022-12-13T04:40:37;24.20;;;11.30;;
25365;SDS011;13315;48.274;-1.900;2022-12-13T04:43:04;22.58;;;11.48;;
25365;SDS011;13315;48.274;-1.900;2022-12-13T04:45:30;21.90;;;11.90;;
25365;SDS011;13315;48.274;-1.900;2022-12-13T04:47:56;22.30;;;11.40;;
25365;SDS011;13315;48.274;-1.900;2022-12-13T04:50:22;22.70;;;12.10;;
25365;SDS011;13315;48.274;-1.900;2022-12-13T04:52:48;22.60;;;11.30;;
25365;SDS011;13315;48.274;-1.900;2022-12-13T04:55:14;28.45;;;13.45;;
25365;SDS011;13315;48.274;-1.900;2022-12-13T04:57:40;23.83;;;11.20;;
25365;SDS011;13315;48.274;-1.900;2022-12-13T05:00:07;21.73;;;11.23;;
25365;SDS011;13315;48.274;-1.900;2022-12-13T05:02:34;26.55;;;11.65;;
25365;SDS011;13315;48.274;-1.900;2022-12-13T05:05:00;25.90;;;12.20;;
25365;SDS011;13315;48.274;-1.900;2022-12-13T05:07:26;27.67;;;12.45;;
25365;SDS011;13315;48.274;-1.900;2022-12-13T05:09:52;29.10;;;12.45;;
25365;SDS011;13315;48.274;-1.900;2022-12-13T05:12:18;24.92;;;11.52;;
25365;SDS011;13315;48.274;-1.900;2022-12-13T05:14:44;24.73;;;12.23;;
25365;SDS011;13315;48.274;-1.900;2022-12-13T05:17:10;23.55;;;11.88;;
25365;SDS011;13315;48.274;-1.900;2022-12-13T05:19:36;24.13;;;11.52;;
25365;SDS011;13315;48.274;-1.900;2022-12-13T05:22:02;25.15;;;12.77;;
25365;SDS011;13315;48.274;-1.900;2022-12-13T05:24:30;32.92;;;13.95;;
25365;SDS011;13315;48.274;-1.900;2022-12-13T05:26:56;27.48;;;13.65;;
25365;SDS011;13315;48.274;-1.900;2022-12-13T05:29:22;27.15;;;13.05;;
25365;SDS011;13315;48.274;-1.900;2022-12-13T05:31:48;24.25;;;12.20;;
25365;SDS011;13315;48.274;-1.900;2022-12-13T05:34:15;30.23;;;14.48;;
25365;SDS011;13315;48.274;-1.900;2022-12-13T05:36:41;24.80;;;11.10;;
25365;SDS011;13315;48.274;-1.900;2022-12-13T05:39:07;25.88;;;13.60;;
25365;SDS011;13315;48.274;-1.900;2022-12-13T05:41:33;31.27;;;13.82;;
25365;SDS011;13315;48.274;-1.900;2022-12-13T05:44:00;22.65;;;12.45;;
25365;SDS011;13315;48.274;-1.900;2022-12-13T05:46:26;31.42;;;13.80;;
25365;SDS011;13315;48.274;-1.900;2022-12-13T05:48:52;25.30;;;12.05;;
25365;SDS011;13315;48.274;-1.900;2022-12-13T05:51:18;26.42;;;13.18;;
25365;SDS011;13315;48.274;-1.900;2022-12-13T05:53:44;26.85;;;12.52;;
25365;SDS011;13315;48.274;-1.900;2022-12-13T05:56:11;26.15;;;11.50;;
25365;SDS011;13315;48.274;-1.900;2022-12-13T05:58:37;24.40;;;11.63;;
25365;SDS011;13315;48.274;-1.900;2022-12-13T06:01:08;23.52;;;11.30;;
25365;SDS011;13315;48.274;-1.900;2022-12-13T06:03:34;24.23;;;11.57;;
25365;SDS011;13315;48.274;-1.900;2022-12-13T06:06:01;24.30;;;11.40;;
25365;SDS011;13315;48.274;-1.900;2022-12-13T06:08:27;21.02;;;10.88;;
25365;SDS011;13315;48.274;-1.900;2022-12-13T06:10:54;23.33;;;11.30;;
25365;SDS011;13315;48.274;-1.900;2022-12-13T06:13:20;24.52;;;12.70;;
25365;SDS011;13315;48.274;-1.900;2022-12-13T06:15:46;22.00;;;10.65;;
25365;SDS011;13315;48.274;-1.900;2022-12-13T06:18:12;27.60;;;12.40;;
25365;SDS011;13315;48.274;-1.900;2022-12-13T06:20:39;25.08;;;11.98;;
25365;SDS011;13315;48.274;-1.900;2022-12-13T06:23:05;27.45;;;12.75;;
25365;SDS011;13315;48.274;-1.900;2022-12-13T06:25:31;21.95;;;11.27;;
25365;SDS011;13315;48.274;-1.900;2022-12-13T06:27:58;30.23;;;13.30;;
25365;SDS011;13315;48.274;-1.900;2022-12-13T06:30:24;34.08;;;14.00;;
25365;SDS011;13315;48.274;-1.900;2022-12-13T06:32:50;37.38;;;15.57;;
25365;SDS011;13315;48.274;-1.900;2022-12-13T06:35:16;24.17;;;11.43;;
25365;SDS011;13315;48.274;-1.900;2022-12-13T06:37:42;28.95;;;12.73;;
25365;SDS011;13315;48.274;-1.900;2022-12-13T06:40:08;21.33;;;11.52;;
25365;SDS011;13315;48.274;-1.900;2022-12-13T06:42:35;24.95;;;11.82;;
25365;SDS011;13315;48.274;-1.900;2022-12-13T06:45:01;23.60;;;11.00;;
25365;SDS011;13315;48.274;-1.900;2022-12-13T06:47:27;23.83;;;11.35;;
25365;SDS011;13315;48.274;-1.900;2022-12-13T06:49:53;30.45;;;12.18;;
25365;SDS011;13315;48.274;-1.900;2022-12-13T06:52:19;26.60;;;12.27;;
25365;SDS011;13315;48.274;-1.900;2022-12-13T06:54:45;26.23;;;12.48;;
25365;SDS011;13315;48.274;-1.900;2022-12-13T06:57:11;25.55;;;11.35;;
25365;SDS011;13315;48.274;-1.900;2022-12-13T06:59:38;26.10;;;11.63;;
25365;SDS011;13315;48.274;-1.900;2022-12-13T07:02:04;22.60;;;11.05;;
25365;SDS011;13315;48.274;-1.900;2022-12-13T07:04:31;26.48;;;11.52;;
25365;SDS011;13315;48.274;-1.900;2022-12-13T07:06:57;25.35;;;12.82;;
25365;SDS011;13315;48.274;-1.900;2022-12-13T07:09:23;22.15;;;12.20;;
25365;SDS011;13315;48.274;-1.900;2022-12-13T07:11:49;26.88;;;12.18;;
25365;SDS011;13315;48.274;-1.900;2022-12-13T07:14:16;22.45;;;11.50;;
25365;SDS011;13315;48.274;-1.900;2022-12-13T07:16:42;29.80;;;12.27;;
25365;SDS011;13315;48.274;-1.900;2022-12-13T07:19:08;24.33;;;11.57;;
25365;SDS011;13315;48.274;-1.900;2022-12-13T07:21:34;25.27;;;11.50;;
25365;SDS011;13315;48.274;-1.900;2022-12-13T07:24:02;25.87;;;12.37;;
25365;SDS011;13315;48.274;-1.900;2022-12-13T07:26:28;26.45;;;11.82;;
25365;SDS011;13315;48.274;-1.900;2022-12-13T07:28:54;22.98;;;11.07;;
25365;SDS011;13315;48.274;-1.900;2022-12-13T07:31:21;27.13;;;12.57;;
25365;SDS011;13315;48.274;-1.900;2022-12-13T07:33:48;20.80;;;10.77;;
25365;SDS011;13315;48.274;-1.900;2022-12-13T07:36:18;24.48;;;12.05;;
25365;SDS011;13315;48.274;-1.900;2022-12-13T07:38:49;21.00;;;11.18;;
25365;SDS011;13315;48.274;-1.900;2022-12-13T07:41:15;25.58;;;11.95;;
25365;SDS011;13315;48.274;-1.900;2022-12-13T07:43:41;23.50;;;10.77;;
25365;SDS011;13315;48.274;-1.900;2022-12-13T07:46:08;27.75;;;12.05;;
25365;SDS011;13315;48.274;-1.900;2022-12-13T07:48:35;24.83;;;11.18;;
25365;SDS011;13315;48.274;-1.900;2022-12-13T07:51:02;27.25;;;11.75;;
25365;SDS011;13315;48.274;-1.900;2022-12-13T07:53:28;24.30;;;11.85;;
25365;SDS011;13315;48.274;-1.900;2022-12-13T07:55:54;25.67;;;12.07;;
25365;SDS011;13315;48.274;-1.900;2022-12-13T07:58:20;26.35;;;12.73;;
25365;SDS011;13315;48.274;-1.900;2022-12-13T08:00:47;28.83;;;12.88;;
25365;SDS011;13315;48.274;-1.900;2022-12-13T08:03:13;25.02;;;11.82;;
25365;SDS011;13315;48.274;-1.900;2022-12-13T08:05:39;27.35;;;12.57;;
25365;SDS011;13315;48.274;-1.900;2022-12-13T08:08:06;24.50;;;12.52;;
25365;SDS011;13315;48.274;-1.900;2022-12-13T08:10:33;24.85;;;11.77;;
25365;SDS011;13315;48.274;-1.900;2022-12-13T08:13:02;25.25;;;12.15;;
25365;SDS011;13315;48.274;-1.900;2022-12-13T08:15:28;23.80;;;11.40;;
25365;SDS011;13315;48.274;-1.900;2022-12-13T08:17:54;24.00;;;12.85;;
25365;SDS011;13315;48.274;-1.900;2022-12-13T08:20:20;25.45;;;12.80;;
25365;SDS011;13315;48.274;-1.900;2022-12-13T08:22:56;23.17;;;12.85;;
25365;SDS011;13315;48.274;-1.900;2022-12-13T08:25:22;28.05;;;11.98;;
25365;SDS011;13315;48.274;-1.900;2022-12-13T08:27:49;23.95;;;11.15;;
25365;SDS011;13315;48.274;-1.900;2022-12-13T08:30:15;24.75;;;12.75;;
25365;SDS011;13315;48.274;-1.900;2022-12-13T08:32:41;24.80;;;12.98;;
25365;SDS011;13315;48.274;-1.900;2022-12-13T08:35:07;28.10;;;12.75;;
25365;SDS011;13315;48.274;-1.900;2022-12-13T08:37:34;29.02;;;13.15;;
25365;SDS011;13315;48.274;-1.900;2022-12-13T08:40:00;26.80;;;12.30;;
25365;SDS011;13315;48.274;-1.900;2022-12-13T08:42:28;29.10;;;11.93;;
25365;SDS011;13315;48.274;-1.900;2022-12-13T08:44:54;29.13;;;12.40;;
25365;SDS011;13315;48.274;-1.900;2022-12-13T08:47:21;23.63;;;11.65;;
25365;SDS011;13315;48.274;-1.900;2022-12-13T08:49:47;22.65;;;11.48;;
25365;SDS011;13315;48.274;-1.900;2022-12-13T08:52:13;25.02;;;11.30;;
25365;SDS011;13315;48.274;-1.900;2022-12-13T08:54:40;23.60;;;10.85;;
25365;SDS011;13315;48.274;-1.900;2022-12-13T08:57:08;26.40;;;11.85;;
25365;SDS011;13315;48.274;-1.900;2022-12-13T08:59:34;27.52;;;11.68;;
25365;SDS011;13315;48.274;-1.900;2022-12-13T09:02:01;22.45;;;12.20;;
25365;SDS011;13315;48.274;-1.900;2022-12-13T09:04:27;24.27;;;11.45;;
25365;SDS011;13315;48.274;-1.900;2022-12-13T09:06:53;19.27;;;10.10;;
25365;SDS011;13315;48.274;-1.900;2022-12-13T09:09:19;23.02;;;12.23;;
25365;SDS011;13315;48.274;-1.900;2022-12-13T09:11:45;23.25;;;11.15;;
25365;SDS011;13315;48.274;-1.900;2022-12-13T09:14:11;23.63;;;11.20;;
25365;SDS011;13315;48.274;-1.900;2022-12-13T09:16:37;21.60;;;10.55;;
25365;SDS011;13315;48.274;-1.900;2022-12-13T09:19:04;19.90;;;10.98;;
25365;SDS011;13315;48.274;-1.900;2022-12-13T09:21:30;26.13;;;11.10;;
25365;SDS011;13315;48.274;-1.900;2022-12-13T09:23:56;23.58;;;10.98;;
25365;SDS011;13315;48.274;-1.900;2022-12-13T09:26:22;23.25;;;10.32;;
25365;SDS011;13315;48.274;-1.900;2022-12-13T09:28:48;18.55;;;9.90;;
25365;SDS011;13315;48.274;-1.900;2022-12-13T09:31:15;23.25;;;11.40;;
25365;SDS011;13315;48.274;-1.900;2022-12-13T09:33:42;25.48;;;10.52;;
25365;SDS011;13315;48.274;-1.900;2022-12-13T09:36:12;22.30;;;10.55;;
25365;SDS011;13315;48.274;-1.900;2022-12-13T09:38:39;23.55;;;11.15;;
25365;SDS011;13315;48.274;-1.900;2022-12-13T09:41:10;22.50;;;10.63;;
25365;SDS011;13315;48.274;-1.900;2022-12-13T09:43:37;18.77;;;10.38;;
25365;SDS011;13315;48.274;-1.900;2022-12-13T09:46:05;18.80;;;9.18;;
25365;SDS011;13315;48.274;-1.900;2022-12-13T09:48:32;18.73;;;10.45;;
25365;SDS011;13315;48.274;-1.900;2022-12-13T09:50:59;25.10;;;11.73;;
25365;SDS011;13315;48.274;-1.900;2022-12-13T09:53:25;19.80;;;10.60;;
25365;SDS011;13315;48.274;-1.900;2022-12-13T09:55:51;20.42;;;10.15;;
25365;SDS011;13315;48.274;-1.900;2022-12-13T09:58:22;20.92;;;10.68;;
25365;SDS011;13315;48.274;-1.900;2022-12-13T10:00:50;23.20;;;10.57;;
25365;SDS011;13315;48.274;-1.900;2022-12-13T10:03:17;20.50;;;10.02;;
25365;SDS011;13315;48.274;-1.900;2022-12-13T10:05:54;22.88;;;10.35;;
25365;SDS011;13315;48.274;-1.900;2022-12-13T10:08:23;18.90;;;9.55;;
25365;SDS011;13315;48.274;-1.900;2022-12-13T10:10:50;18.52;;;10.00;;
25365;SDS011;13315;48.274;-1.900;2022-12-13T10:14:02;20.17;;;10.48;;
25365;SDS011;13315;48.274;-1.900;2022-12-13T10:16:15;23.23;;;10.57;;
25365;SDS011;13315;48.274;-1.900;2022-12-13T10:18:42;23.08;;;10.57;;
25365;SDS011;13315;48.274;-1.900;2022-12-13T10:21:11;20.13;;;10.40;;
25365;SDS011;13315;48.274;-1.900;2022-12-13T10:26:07;19.55;;;9.68;;
25365;SDS011;13315;48.274;-1.900;2022-12-13T10:28:34;21.52;;;10.68;;
25365;SDS011;13315;48.274;-1.900;2022-12-13T10:31:00;21.83;;;10.32;;
25365;SDS011;13315;48.274;-1.900;2022-12-13T10:33:31;18.95;;;9.98;;
25365;SDS011;13315;48.274;-1.900;2022-12-13T10:36:02;20.30;;;10.35;;
25365;SDS011;13315;48.274;-1.900;2022-12-13T10:38:29;22.55;;;10.25;;
25365;SDS011;13315;48.274;-1.900;2022-12-13T10:40:55;24.70;;;10.13;;
25365;SDS011;13315;48.274;-1.900;2022-12-13T10:43:25;17.48;;;9.65;;
25365;SDS011;13315;48.274;-1.900;2022-12-13T10:48:22;19.73;;;9.88;;
25365;SDS011;13315;48.274;-1.900;2022-12-13T10:50:56;19.10;;;9.23;;
25365;SDS011;13315;48.274;-1.900;2022-12-13T10:53:24;21.75;;;10.20;;
25365;SDS011;13315;48.274;-1.900;2022-12-13T10:55:53;16.73;;;10.15;;
25365;SDS011;13315;48.274;-1.900;2022-12-13T10:58:20;17.67;;;10.75;;
25365;SDS011;13315;48.274;-1.900;2022-12-13T11:00:46;18.10;;;9.35;;
25365;SDS011;13315;48.274;-1.900;2022-12-13T11:03:32;20.08;;;9.88;;
25365;SDS011;13315;48.274;-1.900;2022-12-13T11:06:03;16.35;;;9.27;;
25365;SDS011;13315;48.274;-1.900;2022-12-13T11:08:29;17.05;;;9.45;;
25365;SDS011;13315;48.274;-1.900;2022-12-13T11:10:59;17.52;;;9.68;;
25365;SDS011;13315;48.274;-1.900;2022-12-13T11:13:37;19.75;;;9.77;;
25365;SDS011;13315;48.274;-1.900;2022-12-13T11:16:04;18.40;;;10.35;;
25365;SDS011;13315;48.274;-1.900;2022-12-13T11:18:35;19.48;;;10.13;;
25365;SDS011;13315;48.274;-1.900;2022-12-13T11:21:03;21.65;;;10.32;;
25365;SDS011;13315;48.274;-1.900;2022-12-13T11:23:38;16.75;;;8.98;;
25365;SDS011;13315;48.274;-1.900;2022-12-13T11:26:08;17.83;;;10.27;;
25365;SDS011;13315;48.274;-1.900;2022-12-13T11:33:50;17.23;;;9.77;;
25365;SDS011;13315;48.274;-1.900;2022-12-13T11:41:30;21.48;;;9.75;;
25365;SDS011;13315;48.274;-1.900;2022-12-13T11:46:37;16.83;;;9.63;;
25365;SDS011;13315;48.274;-1.900;2022-12-13T11:49:08;21.35;;;11.02;;
25365;SDS011;13315;48.274;-1.900;2022-12-13T11:51:42;20.13;;;10.07;;
25365;SDS011;13315;48.274;-1.900;2022-12-13T11:54:10;18.58;;;10.65;;
25365;SDS011;13315;48.274;-1.900;2022-12-13T11:56:40;15.80;;;9.77;;
25365;SDS011;13315;48.274;-1.900;2022-12-13T12:01:53;18.05;;;9.50;;
25365;SDS011;13315;48.274;-1.900;2022-12-13T12:07:23;18.67;;;9.07;;
25365;SDS011;13315;48.274;-1.900;2022-12-13T12:10:50;16.55;;;9.57;;
25365;SDS011;13315;48.274;-1.900;2022-12-13T12:12:45;19.33;;;9.77;;
25365;SDS011;13315;48.274;-1.900;2022-12-13T12:15:18;17.27;;;9.45;;
25365;SDS011;13315;48.274;-1.900;2022-12-13T12:17:45;17.73;;;10.32;;
25365;SDS011;13315;48.274;-1.900;2022-12-13T12:20:16;19.60;;;10.80;;
25365;SDS011;13315;48.274;-1.900;2022-12-13T12:23:06;16.83;;;9.20;;
25365;SDS011;13315;48.274;-1.900;2022-12-13T12:28:24;15.68;;;8.48;;
25365;SDS011;13315;48.274;-1.900;2022-12-13T12:30:54;15.30;;;8.75;;
25365;SDS011;13315;48.274;-1.900;2022-12-13T12:33:36;18.70;;;9.73;;
25365;SDS011;13315;48.274;-1.900;2022-12-13T12:43:31;22.63;;;10.25;;
25365;SDS011;13315;48.274;-1.900;2022-12-13T12:46:02;18.80;;;8.93;;
25365;SDS011;13315;48.274;-1.900;2022-12-13T12:48:35;18.50;;;9.52;;
25365;SDS011;13315;48.274;-1.900;2022-12-13T12:53:58;17.40;;;9.02;;
25365;SDS011;13315;48.274;-1.900;2022-12-13T13:04:22;14.35;;;8.95;;
25365;SDS011;13315;48.274;-1.900;2022-12-13T13:06:52;20.45;;;9.00;;
25365;SDS011;13315;48.274;-1.900;2022-12-13T13:09:21;14.32;;;8.15;;
25365;SDS011;13315;48.274;-1.900;2022-12-13T13:11:48;14.40;;;8.77;;
25365;SDS011;13315;48.274;-1.900;2022-12-13T13:16:57;18.27;;;9.10;;
25365;SDS011;13315;48.274;-1.900;2022-12-13T13:20:10;18.48;;;9.10;;
25365;SDS011;13315;48.274;-1.900;2022-12-13T13:22:26;15.32;;;8.15;;
25365;SDS011;13315;48.274;-1.900;2022-12-13T13:27:29;17.73;;;9.32;;
25365;SDS011;13315;48.274;-1.900;2022-12-13T13:30:06;16.92;;;8.95;;
25365;SDS011;13315;48.274;-1.900;2022-12-13T13:32:32;17.38;;;8.18;;
25365;SDS011;13315;48.274;-1.900;2022-12-13T13:37:50;15.82;;;9.05;;
25365;SDS011;13315;48.274;-1.900;2022-12-13T13:45:26;16.80;;;9.52;;
25365;SDS011;13315;48.274;-1.900;2022-12-13T13:50:28;16.98;;;8.13;;
25365;SDS011;13315;48.274;-1.900;2022-12-13T14:22:39;16.88;;;9.43;;
25365;SDS011;13315;48.274;-1.900;2022-12-13T14:27:47;16.63;;;8.48;;
25365;SDS011;13315;48.274;-1.900;2022-12-13T14:30:17;17.25;;;9.23;;
25365;SDS011;13315;48.274;-1.900;2022-12-13T14:38:16;19.80;;;9.57;;
25365;SDS011;13315;48.274;-1.900;2022-12-13T14:40:49;16.15;;;8.82;;
25365;SDS011;13315;48.274;-1.900;2022-12-13T14:43:27;13.93;;;8.15;;
25365;SDS011;13315;48.274;-1.900;2022-12-13T14:45:54;15.07;;;9.60;;
25365;SDS011;13315;48.274;-1.900;2022-12-13T14:48:20;16.85;;;8.85;;
25365;SDS011;13315;48.274;-1.900;2022-12-13T14:50:48;16.65;;;9.43;;
25365;SDS011;13315;48.274;-1.900;2022-12-13T14:56:10;17.48;;;8.80;;
25365;SDS011;13315;48.274;-1.900;2022-12-13T14:58:36;15.65;;;9.15;;
25365;SDS011;13315;48.274;-1.900;2022-12-13T15:01:21;17.35;;;8.15;;
25365;SDS011;13315;48.274;-1.900;2022-12-13T15:03:49;15.50;;;8.60;;
25365;SDS011;13315;48.274;-1.900;2022-12-13T15:06:16;13.63;;;8.68;;
25365;SDS011;13315;48.274;-1.900;2022-12-13T15:08:44;14.73;;;8.40;;
25365;SDS011;13315;48.274;-1.900;2022-12-13T15:11:10;17.92;;;10.30;;
25365;SDS011;13315;48.274;-1.900;2022-12-13T15:16:12;17.35;;;9.43;;
25365;SDS011;13315;48.274;-1.900;2022-12-13T15:18:42;19.05;;;9.27;;
25365;SDS011;13315;48.274;-1.900;2022-12-13T15:21:42;17.98;;;9.95;;
25365;SDS011;13315;48.274;-1.900;2022-12-13T15:24:01;20.42;;;9.90;;
25365;SDS011;13315;48.274;-1.900;2022-12-13T15:26:27;17.17;;;9.27;;
25365;SDS011;13315;48.274;-1.900;2022-12-13T15:28:55;20.13;;;9.82;;
25365;SDS011;13315;48.274;-1.900;2022-12-13T15:31:22;18.50;;;9.77;;
25365;SDS011;13315;48.274;-1.900;2022-12-13T15:33:48;18.13;;;8.70;;
25365;SDS011;13315;48.274;-1.900;2022-12-13T15:36:16;22.30;;;10.95;;
25365;SDS011;13315;48.274;-1.900;2022-12-13T15:41:19;16.35;;;9.18;;
25365;SDS011;13315;48.274;-1.900;2022-12-13T15:43:50;20.20;;;9.77;;
25365;SDS011;13315;48.274;-1.900;2022-12-13T15:46:26;18.48;;;9.98;;
25365;SDS011;13315;48.274;-1.900;2022-12-13T15:48:54;19.70;;;10.05;;
25365;SDS011;13315;48.274;-1.900;2022-12-13T15:51:20;18.15;;;9.93;;
25365;SDS011;13315;48.274;-1.900;2022-12-13T15:54:04;16.73;;;9.43;;
25365;SDS011;13315;48.274;-1.900;2022-12-13T15:58:57;17.15;;;8.75;;
25365;SDS011;13315;48.274;-1.900;2022-12-13T16:01:30;20.30;;;10.23;;
25365;SDS011;13315;48.274;-1.900;2022-12-13T16:03:57;19.50;;;10.43;;
25365;SDS011;13315;48.274;-1.900;2022-12-13T16:06:24;19.50;;;9.68;;
25365;SDS011;13315;48.274;-1.900;2022-12-13T16:08:52;21.83;;;10.43;;
25365;SDS011;13315;48.274;-1.900;2022-12-13T16:11:53;16.87;;;9.13;;
25365;SDS011;13315;48.274;-1.900;2022-12-13T16:14:54;15.85;;;9.85;;
25365;SDS011;13315;48.274;-1.900;2022-12-13T16:17:07;21.10;;;11.40;;
25365;SDS011;13315;48.274;-1.900;2022-12-13T16:19:35;20.35;;;9.68;;
25365;SDS011;13315;48.274;-1.900;2022-12-13T16:22:01;20.95;;;10.35;;
25365;SDS011;13315;48.274;-1.900;2022-12-13T16:24:27;17.00;;;9.45;;
25365;SDS011;13315;48.274;-1.900;2022-12-13T16:26:54;17.17;;;9.35;;
25365;SDS011;13315;48.274;-1.900;2022-12-13T16:29:20;18.85;;;10.05;;
25365;SDS011;13315;48.274;-1.900;2022-12-13T16:31:46;16.98;;;9.65;;
25365;SDS011;13315;48.274;-1.900;2022-12-13T16:34:13;22.73;;;10.32;;
25365;SDS011;13315;48.274;-1.900;2022-12-13T16:36:42;20.65;;;10.02;;
25365;SDS011;13315;48.274;-1.900;2022-12-13T16:39:09;19.52;;;10.55;;
25365;SDS011;13315;48.274;-1.900;2022-12-13T16:41:43;21.77;;;10.20;;
25365;SDS011;13315;48.274;-1.900;2022-12-13T16:44:15;23.02;;;11.35;;